createdAt,value
2023-04-07T00:01:23.756Z,79.40
2023-04-07T00:03:53.025Z,81.07
2023-04-07T00:06:22.172Z,80.93
2023-04-07T00:08:51.304Z,79.56
2023-04-07T00:11:20.608Z,79.74
2023-04-07T00:13:49.564Z,78.16
2023-04-07T00:16:22.292Z,78.75
2023-04-07T00:18:51.327Z,79.79
2023-04-07T00:21:20.260Z,78.54
2023-04-07T00:23:49.297Z,78.11
2023-04-07T00:26:18.302Z,79.55
2023-04-07T00:28:49.254Z,79.49
2023-04-07T00:31:19.701Z,80.00
2023-04-07T00:33:49.540Z,77.74
2023-04-07T00:36:18.762Z,78.49
2023-04-07T00:38:50.196Z,77.09
2023-04-07T00:41:19.200Z,75.83
2023-04-07T00:43:48.313Z,74.82
2023-04-07T00:46:17.679Z,75.91
2023-04-07T00:48:48.472Z,77.23
2023-04-07T00:51:17.658Z,77.14
2023-04-07T00:53:46.715Z,74.87
2023-04-07T00:56:16.074Z,75.75
2023-04-07T00:58:45.340Z,77.87
2023-04-07T01:01:20.208Z,78.34
2023-04-07T01:03:58.483Z,78.96
2023-04-07T01:06:32.657Z,79.74
2023-04-07T01:09:08.790Z,78.60
2023-04-07T01:11:44.474Z,77.63
2023-04-07T01:14:20.792Z,77.50
2023-04-07T01:16:59.094Z,78.55
2023-04-07T01:19:37.807Z,80.60
2023-04-07T01:22:12.857Z,80.52
2023-04-07T01:25:01.400Z,80.41
2023-04-07T01:27:44.134Z,78.00
2023-04-07T01:30:16.981Z,77.62
2023-04-07T01:32:52.051Z,78.05
2023-04-07T01:35:25.182Z,78.75
2023-04-07T01:37:55.358Z,80.13
2023-04-07T01:40:25.363Z,81.54
2023-04-07T01:42:55.579Z,80.53
2023-04-07T01:45:27.860Z,80.75
2023-04-07T01:47:57.232Z,80.66
2023-04-07T01:50:27.406Z,78.03
2023-04-07T01:52:57.428Z,77.38
2023-04-07T01:55:27.032Z,77.71
2023-04-07T01:58:09.431Z,78.84
2023-04-07T02:00:43.484Z,79.38
2023-04-07T02:03:33.247Z,77.15
2023-04-07T02:06:08.524Z,78.11
2023-04-07T02:08:41.659Z,79.26
2023-04-07T02:11:12.850Z,80.15
2023-04-07T02:13:45.512Z,79.99
2023-04-07T02:16:18.407Z,79.73
2023-04-07T02:18:48.816Z,78.51
2023-04-07T02:21:19.482Z,79.03
2023-04-07T02:23:48.706Z,77.66
2023-04-07T02:26:17.952Z,76.92
2023-04-07T02:28:46.905Z,75.00
2023-04-07T02:31:17.336Z,75.10
2023-04-07T02:33:46.387Z,77.06
2023-04-07T02:36:15.403Z,74.86
2023-04-07T02:38:44.429Z,75.09
2023-04-07T02:41:13.465Z,75.60
2023-04-07T02:43:42.500Z,77.52
2023-04-07T02:46:12.061Z,77.64
2023-04-07T02:48:42.977Z,74.69
2023-04-07T02:51:12.363Z,75.99
2023-04-07T02:53:41.380Z,77.75
2023-04-07T02:56:10.910Z,77.04
2023-04-07T02:58:39.943Z,77.66
2023-04-07T03:01:09.606Z,78.32
2023-04-07T03:03:39.382Z,77.81
2023-04-07T03:06:15.705Z,77.89
2023-04-07T03:08:59.326Z,79.95
2023-04-07T03:11:28.434Z,80.61
2023-04-07T03:13:59.928Z,79.73
2023-04-07T03:16:30.727Z,77.94
2023-04-07T03:19:25.882Z,78.78
2023-04-07T03:21:56.757Z,78.06
2023-04-07T03:24:25.870Z,77.11
2023-04-07T03:26:55.061Z,79.06
2023-04-07T03:29:38.417Z,78.95
2023-04-07T03:32:10.595Z,77.84
2023-04-07T03:34:40.137Z,79.75
2023-04-07T03:37:10.894Z,81.00
2023-04-07T03:39:41.196Z,80.67
2023-04-07T03:42:32.465Z,77.75
2023-04-07T03:45:07.085Z,78.71
2023-04-07T03:47:38.514Z,79.09
2023-04-07T03:50:09.732Z,80.58
2023-04-07T03:52:49.714Z,79.88
2023-04-07T03:55:32.133Z,79.00
2023-04-07T03:58:10.454Z,80.20
2023-04-07T04:00:43.906Z,80.50
2023-04-07T04:03:14.680Z,82.68
2023-04-07T04:06:04.877Z,81.67
2023-04-07T04:08:37.785Z,82.55
2023-04-07T04:11:07.758Z,83.65
2023-04-07T04:13:47.217Z,83.03
2023-04-07T04:16:16.388Z,84.60
2023-04-07T04:18:46.614Z,81.32
2023-04-07T04:21:17.446Z,81.51
2023-04-07T04:23:49.764Z,81.62
2023-04-07T04:26:19.754Z,80.79
2023-04-07T04:28:48.909Z,81.15
2023-04-07T04:31:20.591Z,84.83
2023-04-07T04:33:49.687Z,84.62
2023-04-07T04:36:18.805Z,85.32
2023-04-07T04:38:50.653Z,86.38
2023-04-07T04:41:22.072Z,83.77
2023-04-07T04:43:52.897Z,84.29
2023-04-07T04:46:26.280Z,85.82
2023-04-07T04:48:58.002Z,86.91
2023-04-07T04:51:30.964Z,86.65
2023-04-07T04:54:07.513Z,87.54
2023-04-07T04:56:37.099Z,87.74
2023-04-07T04:59:07.187Z,86.81
2023-04-07T05:01:55.666Z,83.67
2023-04-07T05:04:25.096Z,83.49
2023-04-07T05:07:02.705Z,80.99
2023-04-07T05:09:35.390Z,80.71
2023-04-07T05:12:05.831Z,80.75
2023-04-07T05:14:40.569Z,81.87
2023-04-07T05:17:11.188Z,80.39
2023-04-07T05:19:40.795Z,78.58
2023-04-07T05:22:17.037Z,78.65
2023-04-07T05:24:50.916Z,78.38
2023-04-07T05:27:22.894Z,78.25
2023-04-07T05:29:57.163Z,77.37
2023-04-07T05:32:33.741Z,77.64
2023-04-07T05:35:10.632Z,78.28
2023-04-07T05:37:44.263Z,75.92
2023-04-07T05:40:15.691Z,76.32
2023-04-07T05:42:46.106Z,75.58
2023-04-07T05:45:16.150Z,77.05
2023-04-07T05:47:50.668Z,75.32
2023-04-07T05:50:25.888Z,76.80
2023-04-07T05:52:57.141Z,76.73
2023-04-07T05:55:31.171Z,75.97
2023-04-07T05:58:01.302Z,75.10
2023-04-07T06:00:32.900Z,74.72
2023-04-07T06:03:09.044Z,74.61
2023-04-07T06:05:50.166Z,74.81
2023-04-07T06:08:22.378Z,73.02
2023-04-07T06:10:52.897Z,73.62
2023-04-07T06:13:22.028Z,71.52
2023-04-07T06:15:51.210Z,71.57
2023-04-07T06:18:20.262Z,71.59
2023-04-07T06:20:49.533Z,70.93
2023-04-07T06:23:18.597Z,69.70
2023-04-07T06:25:52.179Z,69.77
2023-04-07T06:28:22.654Z,69.38
2023-04-07T06:30:51.875Z,68.39
2023-04-07T06:33:25.589Z,68.79
2023-04-07T06:35:54.752Z,67.97
2023-04-07T06:38:23.923Z,67.43
2023-04-07T06:40:55.466Z,68.46
2023-04-07T06:43:26.172Z,66.02
2023-04-07T06:46:03.894Z,66.00
2023-04-07T06:48:33.069Z,64.11
2023-04-07T06:51:02.086Z,65.94
2023-04-07T06:53:31.132Z,65.63
2023-04-07T06:56:08.178Z,64.53
2023-04-07T06:58:39.019Z,64.91
2023-04-07T07:01:08.301Z,63.40
2023-04-07T07:03:37.360Z,63.34
2023-04-07T07:06:06.825Z,63.62
2023-04-07T07:08:35.860Z,62.13
2023-04-07T07:11:05.500Z,63.18
2023-04-07T07:13:34.552Z,59.63
2023-04-07T07:16:05.467Z,58.33
2023-04-07T07:18:34.588Z,58.78
2023-04-07T07:21:03.561Z,57.58
2023-04-07T07:23:32.795Z,56.76
2023-04-07T07:26:01.877Z,57.46
2023-04-07T07:28:33.557Z,58.12
2023-04-07T07:31:10.231Z,56.84
2023-04-07T07:33:40.562Z,54.72
2023-04-07T07:36:10.318Z,54.25
2023-04-07T07:38:40.192Z,54.79
2023-04-07T07:41:09.485Z,53.35
2023-04-07T07:43:39.633Z,51.00
2023-04-07T07:46:10.094Z,50.57
2023-04-07T07:48:39.303Z,49.44
2023-04-07T07:51:08.335Z,48.83
2023-04-07T07:53:37.426Z,47.67
2023-04-07T07:56:06.608Z,48.86
2023-04-07T07:58:37.471Z,47.34
2023-04-07T08:01:06.598Z,46.89
2023-04-07T08:03:37.538Z,46.61
2023-04-07T08:06:09.444Z,46.33
2023-04-07T08:08:38.471Z,44.78
2023-04-07T08:11:10.125Z,45.83
2023-04-07T08:13:39.256Z,44.07
2023-04-07T08:16:08.809Z,46.24
2023-04-07T08:18:41.300Z,45.12
2023-04-07T08:21:10.453Z,46.16
2023-04-07T08:23:39.574Z,45.88
2023-04-07T08:26:10.870Z,45.81
2023-04-07T08:28:40.429Z,45.20
2023-04-07T08:31:09.560Z,46.52
2023-04-07T08:33:40.385Z,44.85
2023-04-07T08:36:09.583Z,45.76
2023-04-07T08:38:41.419Z,46.15
2023-04-07T08:41:18.806Z,46.22
2023-04-07T08:43:49.725Z,44.27
2023-04-07T08:46:22.772Z,43.61
2023-04-07T08:48:54.085Z,43.31
2023-04-07T08:51:30.500Z,43.47
2023-04-07T08:54:07.385Z,41.97
2023-04-07T08:56:38.646Z,42.63
2023-04-07T08:59:13.932Z,41.70
2023-04-07T09:01:43.309Z,40.85
2023-04-07T09:04:14.332Z,39.98
2023-04-07T09:06:43.452Z,41.12
2023-04-07T09:09:13.455Z,39.39
2023-04-07T09:11:44.018Z,40.02
2023-04-07T09:14:13.714Z,38.28
2023-04-07T09:16:43.628Z,38.83
2023-04-07T09:19:14.198Z,38.38
2023-04-07T09:21:51.352Z,38.26
2023-04-07T09:24:26.116Z,39.92
2023-04-07T09:27:11.473Z,38.09
2023-04-07T09:29:42.134Z,37.94
2023-04-07T09:32:12.359Z,37.79
2023-04-07T09:34:43.238Z,37.40
2023-04-07T09:37:24.120Z,36.61
2023-04-07T09:39:54.653Z,36.70
2023-04-07T09:42:23.718Z,36.53
2023-04-07T09:44:52.980Z,34.99
2023-04-07T09:47:30.367Z,36.08
2023-04-07T09:50:06.841Z,34.32
2023-04-07T09:52:53.592Z,35.13
2023-04-07T09:55:23.748Z,34.91
2023-04-07T09:57:55.368Z,35.51
2023-04-07T10:00:25.249Z,35.28
2023-04-07T10:02:55.301Z,34.85
2023-04-07T10:05:26.516Z,33.98
2023-04-07T10:07:55.704Z,33.50
2023-04-07T10:10:25.523Z,33.64
2023-04-07T10:12:57.005Z,33.97
2023-04-07T10:15:26.734Z,32.66
2023-04-07T10:17:57.886Z,31.83
2023-04-07T10:20:29.928Z,32.24
2023-04-07T10:23:14.625Z,31.72
2023-04-07T10:25:45.965Z,32.42
2023-04-07T10:28:18.475Z,31.92
2023-04-07T10:30:50.623Z,32.01
2023-04-07T10:33:20.188Z,30.58
2023-04-07T10:36:08.472Z,30.75
2023-04-07T10:38:37.566Z,31.16
2023-04-07T10:41:35.391Z,31.24
2023-04-07T10:44:07.389Z,31.97
2023-04-07T10:47:07.114Z,30.40
2023-04-07T10:49:37.998Z,30.42
2023-04-07T10:52:30.167Z,31.03
2023-04-07T10:55:32.820Z,29.94
2023-04-07T10:58:22.876Z,31.52
2023-04-07T11:01:23.301Z,30.88
2023-04-07T11:04:01.218Z,29.30
2023-04-07T11:06:31.593Z,29.71
2023-04-07T11:09:02.125Z,30.63
2023-04-07T11:11:42.442Z,30.49
2023-04-07T11:14:11.780Z,30.41
2023-04-07T11:16:45.845Z,28.24
2023-04-07T11:19:15.171Z,29.66
2023-04-07T11:21:44.240Z,29.93
2023-04-07T11:24:33.986Z,28.12
2023-04-07T11:27:03.120Z,28.64
2023-04-07T11:29:34.832Z,29.38
2023-04-07T11:32:05.580Z,30.86
2023-04-07T11:34:36.865Z,29.17
2023-04-07T11:37:21.077Z,28.54
2023-04-07T11:39:54.893Z,28.53
2023-04-07T11:42:34.596Z,29.10
2023-04-07T11:45:05.077Z,29.68
2023-04-07T11:47:37.210Z,29.01
2023-04-07T11:50:12.119Z,29.05
2023-04-07T11:52:43.890Z,30.00
2023-04-07T11:55:24.472Z,29.24
2023-04-07T11:57:53.878Z,27.17
2023-04-07T12:00:24.987Z,26.45
2023-04-07T12:02:56.801Z,26.50
2023-04-07T12:05:28.196Z,25.47
2023-04-07T12:07:57.988Z,25.90
2023-04-07T12:10:28.874Z,24.88
2023-04-07T12:12:59.412Z,23.61
2023-04-07T12:15:28.924Z,23.30
2023-04-07T12:17:58.200Z,21.39
2023-04-07T12:20:28.474Z,22.13
2023-04-07T12:22:57.944Z,21.75
2023-04-07T12:25:28.662Z,23.67
2023-04-07T12:27:57.652Z,27.13
2023-04-07T12:30:26.697Z,22.81
2023-04-07T12:32:55.837Z,22.48
2023-04-07T12:35:25.221Z,24.35
2023-04-07T12:37:54.685Z,22.56
2023-04-07T12:40:23.848Z,25.02
2023-04-07T12:42:54.213Z,25.91
2023-04-07T12:45:23.366Z,24.52
2023-04-07T12:47:52.448Z,24.41
2023-04-07T12:50:21.477Z,23.84
2023-04-07T12:52:51.303Z,24.03
2023-04-07T12:55:20.835Z,23.94
2023-04-07T12:57:49.823Z,24.63
2023-04-07T13:00:20.420Z,24.88
2023-04-07T13:02:50.925Z,23.95
2023-04-07T13:05:20.165Z,23.49
2023-04-07T13:07:49.897Z,21.27
2023-04-07T13:10:19.399Z,21.08
2023-04-07T13:12:48.705Z,20.69
2023-04-07T13:15:19.277Z,20.59
2023-04-07T13:17:48.654Z,21.87
2023-04-07T13:20:20.175Z,23.41
2023-04-07T13:23:02.719Z,24.21
2023-04-07T13:25:36.523Z,24.49
2023-04-07T13:28:06.044Z,25.39
2023-04-07T13:30:36.506Z,25.15
2023-04-07T13:33:05.894Z,25.17
2023-04-07T13:35:36.113Z,23.30
2023-04-07T13:38:05.845Z,25.48
2023-04-07T13:40:34.957Z,24.82
2023-04-07T13:43:04.216Z,25.33
2023-04-07T13:45:33.794Z,24.84
2023-04-07T13:48:04.455Z,24.56
2023-04-07T13:50:37.175Z,24.61
2023-04-07T13:53:12.618Z,25.42
2023-04-07T13:55:42.104Z,25.84
2023-04-07T13:58:11.211Z,27.06
2023-04-07T14:00:40.443Z,28.40
2023-04-07T14:03:11.043Z,26.63
2023-04-07T14:05:40.402Z,26.39
2023-04-07T14:08:09.479Z,26.33
2023-04-07T14:10:42.151Z,27.18
2023-04-07T14:13:12.827Z,28.66
2023-04-07T14:15:41.929Z,28.74
2023-04-07T14:18:12.452Z,29.64
2023-04-07T14:20:41.604Z,29.42
2023-04-07T14:23:10.779Z,29.47
2023-04-07T14:25:39.872Z,28.45
2023-04-07T14:28:09.626Z,28.33
2023-04-07T14:30:39.087Z,29.67
2023-04-07T14:33:08.268Z,30.64
2023-04-07T14:35:39.593Z,31.33
2023-04-07T14:38:08.601Z,32.39
2023-04-07T14:40:37.752Z,33.21
2023-04-07T14:43:07.916Z,33.22
2023-04-07T14:45:37.488Z,34.60
2023-04-07T14:48:10.343Z,34.66
2023-04-07T14:50:41.326Z,35.88
2023-04-07T14:53:10.460Z,36.42
2023-04-07T14:55:41.622Z,37.47
2023-04-07T14:58:11.035Z,36.85
2023-04-07T15:00:40.146Z,36.86
2023-04-07T15:03:09.510Z,37.17
2023-04-07T15:05:40.071Z,37.53
2023-04-07T15:08:09.179Z,38.21
2023-04-07T15:10:40.322Z,37.98
2023-04-07T15:13:09.455Z,38.45
2023-04-07T15:15:38.593Z,38.53
2023-04-07T15:18:07.793Z,38.34
2023-04-07T15:20:36.836Z,39.18
2023-04-07T15:23:08.202Z,38.07
2023-04-07T15:25:37.237Z,37.80
2023-04-07T15:28:06.862Z,35.85
2023-04-07T15:30:37.147Z,35.71
2023-04-07T15:33:06.589Z,34.70
2023-04-07T15:35:36.492Z,33.51
2023-04-07T15:38:07.097Z,32.56
2023-04-07T15:40:37.710Z,32.22
2023-04-07T15:43:10.501Z,31.81
2023-04-07T15:45:44.179Z,30.69
2023-04-07T15:48:16.272Z,32.59
2023-04-07T15:50:45.533Z,32.29
2023-04-07T15:53:15.953Z,33.03
2023-04-07T15:55:45.614Z,33.68
2023-04-07T15:58:14.697Z,34.24
2023-04-07T16:00:44.734Z,34.86
2023-04-07T16:03:13.948Z,35.67
2023-04-07T16:05:43.386Z,35.23
2023-04-07T16:08:13.814Z,34.71
2023-04-07T16:10:44.530Z,33.72
2023-04-07T16:13:13.790Z,33.95
2023-04-07T16:15:43.718Z,33.27
2023-04-07T16:18:13.241Z,34.88
2023-04-07T16:20:42.494Z,37.06
2023-04-07T16:23:12.591Z,38.83
2023-04-07T16:25:43.222Z,39.98
2023-04-07T16:28:14.177Z,40.88
2023-04-07T16:30:44.212Z,41.90
2023-04-07T16:33:13.410Z,42.47
2023-04-07T16:35:42.850Z,43.04
2023-04-07T16:38:11.938Z,44.04
2023-04-07T16:40:42.742Z,43.39
2023-04-07T16:43:17.639Z,44.57
2023-04-07T16:45:52.271Z,45.63
2023-04-07T16:48:21.524Z,46.26
2023-04-07T16:50:52.199Z,46.72
2023-04-07T16:53:25.933Z,46.65
2023-04-07T16:55:55.101Z,47.40
2023-04-07T16:58:27.652Z,47.94
2023-04-07T17:00:56.781Z,48.38
2023-04-07T17:03:28.756Z,48.44
2023-04-07T17:06:03.475Z,49.41
2023-04-07T17:08:32.812Z,49.04
2023-04-07T17:11:01.855Z,49.36
2023-04-07T17:13:32.438Z,49.92
2023-04-07T17:16:03.990Z,49.95
2023-04-07T17:18:34.023Z,50.47
2023-04-07T17:21:03.163Z,50.81
2023-04-07T17:23:32.349Z,51.91
2023-04-07T17:26:01.561Z,52.00
2023-04-07T17:28:32.243Z,52.69
2023-04-07T17:31:02.925Z,52.62
2023-04-07T17:33:32.323Z,53.11
2023-04-07T17:36:03.666Z,53.75
2023-04-07T17:38:34.083Z,54.12
2023-04-07T17:41:03.310Z,54.66
2023-04-07T17:43:33.794Z,54.58
2023-04-07T17:46:04.742Z,55.67
2023-04-07T17:48:34.369Z,55.36
2023-04-07T17:51:03.434Z,55.20
2023-04-07T17:53:33.742Z,56.08
2023-04-07T17:56:02.759Z,56.45
2023-04-07T17:58:33.334Z,56.31
2023-04-07T18:01:02.738Z,56.95
2023-04-07T18:03:32.093Z,56.78
2023-04-07T18:06:01.262Z,57.07
2023-04-07T18:08:30.762Z,57.24
2023-04-07T18:10:59.832Z,57.50
2023-04-07T18:13:28.878Z,57.24
2023-04-07T18:15:59.687Z,58.20
2023-04-07T18:18:28.790Z,58.85
2023-04-07T18:20:57.812Z,59.10
2023-04-07T18:23:27.033Z,60.93
2023-04-07T18:25:56.095Z,61.95
2023-04-07T18:28:25.886Z,62.78
2023-04-07T18:31:03.810Z,63.35
2023-04-07T18:33:34.254Z,64.57
2023-04-07T18:36:07.867Z,64.33
2023-04-07T18:38:38.245Z,64.90
2023-04-07T18:41:08.701Z,65.70
2023-04-07T18:43:39.421Z,67.11
2023-04-07T18:46:10.913Z,67.54
2023-04-07T18:48:41.136Z,68.30
2023-04-07T18:51:12.823Z,68.67
2023-04-07T18:53:42.130Z,68.68
2023-04-07T18:56:11.503Z,68.85
2023-04-07T18:58:45.000Z,69.89
2023-04-07T19:01:15.858Z,70.14
2023-04-07T19:03:45.915Z,71.94
2023-04-07T19:06:15.731Z,71.87
2023-04-07T19:08:45.248Z,71.77
2023-04-07T19:11:14.598Z,70.97
2023-04-07T19:13:43.893Z,72.62
2023-04-07T19:16:13.267Z,72.96
2023-04-07T19:18:44.097Z,74.41
2023-04-07T19:21:13.737Z,74.26
2023-04-07T19:23:42.939Z,73.48
2023-04-07T19:26:13.094Z,75.63
2023-04-07T19:28:42.448Z,74.47
2023-04-07T19:31:11.973Z,75.07
2023-04-07T19:33:41.452Z,74.98
2023-04-07T19:36:12.388Z,76.35
2023-04-07T19:38:41.548Z,75.48
2023-04-07T19:41:11.135Z,75.80
2023-04-07T19:43:40.337Z,77.10
2023-04-07T19:46:09.501Z,77.69
2023-04-07T19:48:38.602Z,79.06
2023-04-07T19:51:08.318Z,81.21
2023-04-07T19:53:38.918Z,83.30
2023-04-07T19:56:08.452Z,82.95
2023-04-07T19:58:40.185Z,83.15
2023-04-07T20:01:17.845Z,84.31
2023-04-07T20:03:47.372Z,84.99
2023-04-07T20:06:17.231Z,85.20
2023-04-07T20:08:48.541Z,85.15
2023-04-07T20:11:17.928Z,87.18
2023-04-07T20:13:49.549Z,87.58
2023-04-07T20:16:18.636Z,87.81
2023-04-07T20:18:48.118Z,88.76
2023-04-07T20:21:17.450Z,89.40
2023-04-07T20:23:47.850Z,90.33
2023-04-07T20:26:17.825Z,90.85
2023-04-07T20:28:47.219Z,91.21
2023-04-07T20:31:16.829Z,91.94
2023-04-07T20:33:46.032Z,92.42
2023-04-07T20:36:15.044Z,92.11
2023-04-07T20:38:44.749Z,91.49
2023-04-07T20:41:16.713Z,92.21
2023-04-07T20:43:45.984Z,90.75
2023-04-07T20:46:15.188Z,91.11
2023-04-07T20:48:44.622Z,91.58
2023-04-07T20:51:14.382Z,91.45
2023-04-07T20:53:44.120Z,91.07
2023-04-07T20:56:14.585Z,90.51
2023-04-07T20:58:43.659Z,90.68
2023-04-07T21:01:12.740Z,90.70
2023-04-07T21:03:44.700Z,91.38
2023-04-07T21:06:16.775Z,91.54
2023-04-07T21:08:46.235Z,94.50
2023-04-07T21:11:17.095Z,98.25
2023-04-07T21:13:46.284Z,99.11
2023-04-07T21:16:15.523Z,100.00
2023-04-07T21:18:44.551Z,100.00
2023-04-07T21:21:13.696Z,100.00
2023-04-07T21:23:42.842Z,100.00
2023-04-07T21:26:12.032Z,100.00
2023-04-07T21:28:42.492Z,100.00
2023-04-07T21:31:11.839Z,100.00
2023-04-07T21:33:40.862Z,100.00
2023-04-07T21:36:09.966Z,100.00
2023-04-07T21:38:41.859Z,100.00
2023-04-07T21:41:11.542Z,100.00
2023-04-07T21:43:41.936Z,100.00
2023-04-07T21:46:11.068Z,100.00
2023-04-07T21:48:40.123Z,100.00
2023-04-07T21:51:09.354Z,100.00
2023-04-07T21:53:41.629Z,100.00
2023-04-07T21:56:10.842Z,100.00
2023-04-07T21:58:41.820Z,100.00
2023-04-07T22:01:12.283Z,100.00
2023-04-07T22:03:41.699Z,100.00
2023-04-07T22:06:10.767Z,100.00
2023-04-07T22:08:42.543Z,100.00
2023-04-07T22:11:15.587Z,100.00
2023-04-07T22:13:44.642Z,100.00
2023-04-07T22:16:16.416Z,100.00
2023-04-07T22:18:45.926Z,100.00
2023-04-07T22:21:15.689Z,100.00
2023-04-07T22:23:45.578Z,100.00
2023-04-07T22:26:14.970Z,100.00
2023-04-07T22:28:43.999Z,100.00
2023-04-07T22:31:14.517Z,100.00
2023-04-07T22:33:43.823Z,100.00
2023-04-07T22:36:12.860Z,100.00
2023-04-07T22:38:41.860Z,100.00
2023-04-07T22:41:10.921Z,100.00
2023-04-07T22:43:39.969Z,100.00
2023-04-07T22:46:08.946Z,100.00
2023-04-07T22:48:39.392Z,100.00
2023-04-07T22:51:08.723Z,100.00
2023-04-07T22:53:37.791Z,100.00
2023-04-07T22:56:07.992Z,100.00
2023-04-07T22:58:37.106Z,100.00
2023-04-07T23:01:06.492Z,100.00
2023-04-07T23:03:35.826Z,100.00
2023-04-07T23:06:06.469Z,100.00
2023-04-07T23:08:35.683Z,100.00
2023-04-07T23:11:04.679Z,100.00
2023-04-07T23:13:33.790Z,100.00
2023-04-07T23:16:03.873Z,100.00
2023-04-07T23:18:33.165Z,100.00
2023-04-07T23:21:02.279Z,100.00
2023-04-07T23:23:32.904Z,100.00
2023-04-07T23:26:01.980Z,100.00
2023-04-07T23:28:30.968Z,100.00
2023-04-07T23:30:59.989Z,100.00
2023-04-07T23:33:29.051Z,100.00
2023-04-07T23:35:58.392Z,100.00
2023-04-07T23:38:27.588Z,100.00
2023-04-07T23:40:58.020Z,100.00
2023-04-07T23:43:27.234Z,100.00
2023-04-07T23:45:56.701Z,100.00
2023-04-07T23:48:26.517Z,100.00
2023-04-07T23:50:56.052Z,100.00
2023-04-07T23:53:25.056Z,100.00
2023-04-07T23:55:54.158Z,100.00
2023-04-07T23:58:24.579Z,100.00
